createdAt,value
2023-04-13T00:01:04.166Z,8.60
2023-04-13T00:03:33.402Z,8.50
2023-04-13T00:06:00.153Z,8.70
2023-04-13T00:08:26.737Z,8.90
2023-04-13T00:10:54.346Z,9.00
2023-04-13T00:13:23.251Z,9.00
2023-04-13T00:15:49.870Z,8.90
2023-04-13T00:18:18.354Z,8.80
2023-04-13T00:20:46.524Z,8.60
2023-04-13T00:23:13.134Z,8.40
2023-04-13T00:25:39.667Z,8.30
2023-04-13T00:28:06.970Z,8.50
2023-04-13T00:30:33.736Z,8.40
2023-04-13T00:33:02.522Z,8.40
2023-04-13T00:35:29.075Z,8.10
2023-04-13T00:37:55.600Z,7.80
2023-04-13T00:40:22.132Z,7.70
2023-04-13T00:42:49.724Z,7.60
2023-04-13T00:45:18.169Z,7.60
2023-04-13T00:47:49.104Z,7.60
2023-04-13T00:50:17.122Z,7.60
2023-04-13T00:52:44.755Z,7.70
2023-04-13T00:55:11.685Z,7.70
2023-04-13T00:57:40.702Z,7.50
2023-04-13T01:00:10.926Z,7.20
2023-04-13T01:02:42.185Z,7.30
2023-04-13T01:05:12.171Z,7.30
2023-04-13T01:07:39.935Z,7.40
2023-04-13T01:10:27.641Z,7.60
2023-04-13T01:12:57.075Z,7.70
2023-04-13T01:15:23.827Z,7.80
2023-04-13T01:17:54.034Z,7.90
2023-04-13T01:20:21.367Z,7.80
2023-04-13T01:22:51.437Z,8.00
2023-04-13T01:25:26.530Z,7.90
2023-04-13T01:27:55.718Z,7.90
2023-04-13T01:30:24.241Z,8.00
2023-04-13T01:32:52.468Z,8.10
2023-04-13T01:35:20.069Z,8.10
2023-04-13T01:37:52.838Z,8.20
2023-04-13T01:40:20.930Z,8.10
2023-04-13T01:42:47.844Z,8.10
2023-04-13T01:45:17.236Z,8.00
2023-04-13T01:47:51.777Z,7.80
2023-04-13T01:50:25.853Z,7.70
2023-04-13T01:52:55.282Z,7.60
2023-04-13T01:55:25.106Z,7.70
2023-04-13T01:57:52.352Z,7.60
2023-04-13T02:00:18.914Z,7.70
2023-04-13T02:02:45.779Z,7.80
2023-04-13T02:05:12.606Z,7.80
2023-04-13T02:07:39.943Z,7.80
2023-04-13T02:10:06.751Z,7.80
2023-04-13T02:12:34.178Z,7.90
2023-04-13T02:15:01.223Z,7.80
2023-04-13T02:17:29.493Z,7.70
2023-04-13T02:19:57.274Z,7.70
2023-04-13T02:22:23.952Z,7.60
2023-04-13T02:24:50.968Z,7.60
2023-04-13T02:27:17.611Z,7.60
2023-04-13T02:29:44.664Z,7.70
2023-04-13T02:32:11.228Z,7.80
2023-04-13T02:34:37.844Z,7.80
2023-04-13T02:37:04.416Z,7.80
2023-04-13T02:39:31.047Z,7.70
2023-04-13T02:41:57.920Z,7.80
2023-04-13T02:44:24.458Z,7.80
2023-04-13T02:46:51.298Z,7.80
2023-04-13T02:49:17.915Z,7.80
2023-04-13T02:51:44.461Z,8.00
2023-04-13T02:54:11.687Z,7.90
2023-04-13T02:56:38.649Z,8.00
2023-04-13T02:59:06.560Z,8.10
2023-04-13T03:01:33.233Z,8.20
2023-04-13T03:04:00.370Z,8.20
2023-04-13T03:06:27.374Z,8.50
2023-04-13T03:08:54.263Z,8.50
2023-04-13T03:11:23.541Z,8.50
2023-04-13T03:13:50.136Z,8.40
2023-04-13T03:16:17.695Z,8.40
2023-04-13T03:18:45.383Z,8.30
2023-04-13T03:21:12.794Z,8.30
2023-04-13T03:23:39.340Z,8.40
2023-04-13T03:26:06.286Z,8.50
2023-04-13T03:28:32.872Z,8.50
2023-04-13T03:30:59.439Z,8.60
2023-04-13T03:33:26.082Z,8.70
2023-04-13T03:35:52.629Z,8.80
2023-04-13T03:38:19.135Z,8.70
2023-04-13T03:40:45.799Z,8.60
2023-04-13T03:43:12.562Z,8.60
2023-04-13T03:45:39.116Z,8.40
2023-04-13T03:48:06.004Z,8.40
2023-04-13T03:50:32.676Z,8.50
2023-04-13T03:52:59.201Z,8.50
2023-04-13T03:55:25.940Z,8.60
2023-04-13T03:57:52.551Z,8.50
2023-04-13T04:00:19.212Z,8.60
2023-04-13T04:02:46.222Z,8.70
2023-04-13T04:05:13.007Z,8.80
2023-04-13T04:07:39.581Z,8.90
2023-04-13T04:10:06.800Z,8.90
2023-04-13T04:12:33.366Z,8.70
2023-04-13T04:14:59.883Z,8.50
2023-04-13T04:17:26.480Z,8.50
2023-04-13T04:19:53.123Z,8.30
2023-04-13T04:22:19.694Z,8.20
2023-04-13T04:24:46.235Z,8.10
2023-04-13T04:27:14.540Z,7.90
2023-04-13T04:29:41.141Z,7.80
2023-04-13T04:32:10.812Z,7.70
2023-04-13T04:34:38.730Z,7.60
2023-04-13T04:37:17.838Z,7.60
2023-04-13T04:39:47.052Z,7.70
2023-04-13T04:42:14.506Z,7.80
2023-04-13T04:44:41.060Z,7.80
2023-04-13T04:47:07.652Z,7.70
2023-04-13T04:49:34.628Z,7.60
2023-04-13T04:52:01.902Z,7.60
2023-04-13T04:54:28.499Z,7.70
2023-04-13T04:56:57.967Z,7.50
2023-04-13T04:59:24.760Z,7.40
2023-04-13T05:01:52.200Z,7.50
2023-04-13T05:04:18.820Z,7.50
2023-04-13T05:06:45.379Z,7.40
2023-04-13T05:09:11.987Z,7.40
2023-04-13T05:11:39.103Z,7.50
2023-04-13T05:14:05.944Z,7.60
2023-04-13T05:16:34.295Z,7.60
2023-04-13T05:19:01.903Z,7.80
2023-04-13T05:21:28.808Z,7.80
2023-04-13T05:23:56.476Z,7.80
2023-04-13T05:26:25.070Z,7.70
2023-04-13T05:28:51.946Z,7.70
2023-04-13T05:31:18.586Z,7.90
2023-04-13T05:33:46.481Z,8.00
2023-04-13T05:36:13.080Z,8.20
2023-04-13T05:38:39.656Z,8.40
2023-04-13T05:41:07.359Z,8.60
2023-04-13T05:43:37.092Z,8.80
2023-04-13T05:46:03.733Z,8.90
2023-04-13T05:48:32.816Z,9.10
2023-04-13T05:51:00.739Z,9.20
2023-04-13T05:53:27.397Z,9.40
2023-04-13T05:55:54.212Z,9.50
2023-04-13T05:58:21.817Z,9.40
2023-04-13T06:00:48.419Z,9.40
2023-04-13T06:03:15.465Z,9.50
2023-04-13T06:05:42.329Z,9.50
2023-04-13T06:08:10.542Z,9.40
2023-04-13T06:14:27.852Z,9.30
2023-04-13T06:16:54.485Z,9.10
2023-04-13T06:19:21.443Z,9.00
2023-04-13T06:21:48.027Z,9.20
2023-04-13T06:24:14.596Z,9.40
2023-04-13T06:26:41.624Z,9.60
2023-04-13T06:29:08.184Z,9.90
2023-04-13T06:31:34.857Z,10.30
2023-04-13T06:34:02.362Z,10.40
2023-04-13T06:36:28.969Z,10.40
2023-04-13T06:38:55.552Z,10.70
2023-04-13T06:41:22.133Z,11.00
2023-04-13T06:43:48.738Z,11.10
2023-04-13T06:46:15.924Z,11.00
2023-04-13T06:48:43.752Z,11.20
2023-04-13T06:51:11.811Z,11.40
2023-04-13T06:53:38.498Z,11.60
2023-04-13T06:56:05.212Z,11.70
2023-04-13T06:58:32.052Z,11.70
2023-04-13T07:00:58.849Z,11.80
2023-04-13T07:03:25.945Z,11.20
2023-04-13T07:05:52.585Z,11.10
2023-04-13T07:08:19.368Z,10.90
2023-04-13T07:10:46.368Z,10.80
2023-04-13T07:13:12.893Z,10.80
2023-04-13T07:15:39.454Z,11.00
2023-04-13T07:18:06.080Z,11.10
2023-04-13T07:20:35.028Z,11.20
2023-04-13T07:23:02.307Z,10.90
2023-04-13T07:25:28.844Z,10.80
2023-04-13T07:27:55.996Z,10.40
2023-04-13T07:30:22.570Z,10.60
2023-04-13T07:32:49.158Z,10.60
2023-04-13T07:35:15.813Z,10.60
2023-04-13T07:37:42.516Z,10.70
2023-04-13T07:40:09.452Z,11.10
2023-04-13T07:42:36.178Z,11.10
2023-04-13T07:45:02.847Z,11.00
2023-04-13T07:47:29.513Z,10.80
2023-04-13T07:49:56.565Z,10.90
2023-04-13T07:52:23.122Z,11.00
2023-04-13T07:54:49.752Z,11.00
2023-04-13T07:57:22.007Z,11.10
2023-04-13T07:59:48.710Z,11.30
2023-04-13T08:02:17.021Z,11.60
2023-04-13T08:04:44.763Z,11.90
2023-04-13T08:07:13.575Z,12.00
2023-04-13T08:09:40.950Z,12.20
2023-04-13T08:12:08.433Z,12.60
2023-04-13T08:14:35.204Z,13.20
2023-04-13T08:17:04.221Z,13.50
2023-04-13T08:19:30.923Z,13.60
2023-04-13T08:21:57.750Z,13.00
2023-04-13T08:24:25.177Z,12.60
2023-04-13T08:26:55.142Z,12.40
2023-04-13T08:29:24.052Z,11.90
2023-04-13T08:31:50.945Z,11.50
2023-04-13T08:34:18.487Z,11.40
2023-04-13T08:36:45.949Z,11.20
2023-04-13T08:39:13.322Z,11.00
2023-04-13T08:41:42.000Z,11.10
2023-04-13T08:44:08.729Z,10.90
2023-04-13T08:46:35.535Z,10.90
2023-04-13T08:49:03.015Z,10.70
2023-04-13T08:51:33.228Z,10.50
2023-04-13T08:53:59.917Z,9.50
2023-04-13T08:56:42.199Z,8.70
2023-04-13T08:59:12.986Z,8.30
2023-04-13T09:01:39.928Z,8.10
2023-04-13T09:04:10.565Z,8.10
2023-04-13T09:06:39.868Z,8.30
2023-04-13T09:09:08.555Z,8.50
2023-04-13T09:11:35.272Z,8.70
2023-04-13T09:14:02.497Z,8.90
2023-04-13T09:16:29.085Z,9.00
2023-04-13T09:18:56.924Z,9.10
2023-04-13T09:21:35.635Z,9.60
2023-04-13T09:24:02.647Z,10.40
2023-04-13T09:26:38.829Z,12.00
2023-04-13T09:29:05.397Z,12.40
2023-04-13T09:31:37.650Z,12.60
2023-04-13T09:34:04.247Z,12.60
2023-04-13T09:36:32.455Z,13.10
2023-04-13T09:38:59.214Z,13.00
2023-04-13T09:41:40.494Z,12.80
2023-04-13T09:44:20.519Z,12.50
2023-04-13T09:47:00.219Z,12.50
2023-04-13T09:49:36.378Z,12.60
2023-04-13T09:52:03.212Z,12.90
2023-04-13T09:54:29.767Z,13.50
2023-04-13T10:16:56.044Z,16.30
2023-04-13T10:19:29.523Z,15.90
2023-04-13T10:21:56.619Z,14.80
2023-04-13T10:24:23.846Z,14.00
2023-04-13T10:26:52.826Z,13.90
2023-04-13T10:29:27.182Z,13.90
2023-04-13T10:31:54.890Z,14.50
2023-04-13T10:34:25.644Z,14.80
2023-04-13T10:36:55.225Z,14.90
2023-04-13T10:39:25.808Z,15.30
2023-04-13T10:42:02.777Z,15.60
2023-04-13T10:44:41.106Z,15.10
2023-04-13T10:47:08.386Z,14.90
2023-04-13T10:49:36.451Z,14.90
2023-04-13T10:52:03.554Z,15.60
2023-04-13T10:54:30.294Z,15.80
2023-04-13T10:57:02.206Z,15.60
2023-04-13T10:59:55.438Z,15.70
2023-04-13T11:02:31.578Z,15.50
2023-04-13T11:04:59.544Z,15.00
2023-04-13T11:07:26.818Z,14.70
2023-04-13T11:10:02.892Z,14.40
2023-04-13T11:12:30.112Z,14.30
2023-04-13T11:14:56.687Z,14.00
2023-04-13T11:17:23.478Z,13.70
2023-04-13T11:19:51.296Z,13.60
2023-04-13T11:22:19.056Z,13.40
2023-04-13T11:24:46.247Z,13.40
2023-04-13T11:27:23.100Z,13.80
2023-04-13T11:29:59.078Z,14.60
2023-04-13T11:32:26.355Z,15.50
2023-04-13T11:34:53.164Z,15.60
2023-04-13T11:37:19.770Z,16.40
2023-04-13T11:39:46.511Z,16.70
2023-04-13T11:42:13.363Z,16.30
2023-04-13T11:44:40.077Z,16.00
2023-04-13T11:47:08.746Z,15.70
2023-04-13T11:49:35.628Z,15.50
2023-04-13T11:52:02.770Z,15.00
2023-04-13T11:54:30.177Z,14.60
2023-04-13T11:56:57.477Z,14.10
2023-04-13T11:59:24.759Z,13.80
2023-04-13T12:01:58.297Z,13.20
2023-04-13T12:04:35.806Z,13.00
2023-04-13T12:07:03.131Z,13.10
2023-04-13T12:09:54.051Z,13.40
2023-04-13T12:15:13.151Z,13.80
2023-04-13T12:17:49.594Z,13.60
2023-04-13T12:20:20.531Z,13.20
2023-04-13T12:22:57.665Z,12.90
2023-04-13T12:27:59.314Z,13.40
2023-04-13T12:30:26.388Z,13.70
2023-04-13T12:32:53.967Z,13.90
2023-04-13T12:35:20.622Z,13.70
2023-04-13T12:37:47.866Z,13.20
2023-04-13T12:40:15.695Z,13.70
2023-04-13T12:42:43.036Z,14.20
2023-04-13T12:45:10.232Z,14.40
2023-04-13T12:47:37.251Z,14.70
2023-04-13T12:50:04.572Z,14.90
2023-04-13T12:52:32.294Z,15.10
2023-04-13T12:54:59.891Z,15.40
2023-04-13T12:57:27.297Z,15.60
2023-04-13T12:59:54.005Z,15.50
2023-04-13T13:02:23.661Z,15.50
2023-04-13T13:04:51.682Z,15.40
2023-04-13T13:07:19.090Z,15.20
2023-04-13T13:09:45.894Z,15.10
2023-04-13T13:12:12.770Z,14.70
2023-04-13T13:14:39.361Z,14.50
2023-04-13T13:17:05.921Z,15.00
2023-04-13T13:19:32.535Z,15.00
2023-04-13T13:21:59.943Z,15.20
2023-04-13T13:24:26.573Z,15.40
2023-04-13T13:27:19.616Z,15.60
2023-04-13T13:29:40.630Z,15.80
2023-04-13T13:32:07.496Z,15.70
2023-04-13T13:34:34.034Z,15.60
2023-04-13T13:37:00.598Z,15.40
2023-04-13T13:39:29.008Z,15.20
2023-04-13T13:41:56.814Z,15.20
2023-04-13T13:44:23.523Z,15.10
2023-04-13T13:46:50.206Z,15.20
2023-04-13T13:49:16.792Z,15.40
2023-04-13T13:51:43.504Z,15.40
2023-04-13T13:54:10.029Z,15.20
2023-04-13T13:56:36.573Z,15.40
2023-04-13T13:59:03.695Z,15.40
2023-04-13T14:01:30.315Z,15.90
2023-04-13T14:03:57.073Z,15.70
2023-04-13T14:06:23.957Z,15.50
2023-04-13T14:08:50.751Z,15.20
2023-04-13T14:11:17.287Z,15.40
2023-04-13T14:13:43.970Z,15.10
2023-04-13T14:16:10.616Z,15.00
2023-04-13T14:18:37.335Z,15.00
2023-04-13T14:21:04.457Z,15.20
2023-04-13T14:23:31.335Z,15.40
2023-04-13T14:25:57.942Z,15.80
2023-04-13T14:28:24.567Z,16.10
2023-04-13T14:30:51.128Z,16.00
2023-04-13T14:33:18.055Z,15.60
2023-04-13T14:35:44.637Z,15.60
2023-04-13T14:38:11.588Z,15.60
2023-04-13T14:40:38.263Z,15.50
2023-04-13T14:43:04.875Z,15.40
2023-04-13T14:45:32.068Z,15.50
2023-04-13T14:47:58.669Z,15.80
2023-04-13T14:50:25.325Z,15.80
2023-04-13T14:52:52.435Z,15.40
2023-04-13T14:55:19.314Z,15.30
2023-04-13T14:57:47.007Z,15.50
2023-04-13T15:00:15.729Z,15.60
2023-04-13T15:02:42.774Z,15.50
2023-04-13T15:05:09.693Z,15.60
2023-04-13T15:07:36.228Z,15.40
2023-04-13T15:10:04.637Z,15.10
2023-04-13T15:12:31.576Z,15.40
2023-04-13T15:14:58.134Z,15.70
2023-04-13T15:17:24.842Z,16.00
2023-04-13T15:19:51.431Z,16.40
2023-04-13T15:22:17.967Z,16.70
2023-04-13T15:24:44.569Z,16.70
2023-04-13T15:27:11.266Z,16.30
2023-04-13T15:29:37.934Z,16.30
2023-04-13T15:32:04.838Z,16.00
2023-04-13T15:34:31.579Z,16.10
2023-04-13T15:36:59.384Z,16.10
2023-04-13T15:39:26.014Z,15.60
2023-04-13T15:41:54.161Z,15.50
2023-04-13T15:44:21.290Z,15.80
2023-04-13T15:46:48.059Z,15.60
2023-04-13T15:49:14.810Z,15.50
2023-04-13T15:51:41.405Z,15.50
2023-04-13T15:54:07.989Z,15.50
2023-04-13T15:56:34.707Z,15.70
2023-04-13T15:59:01.637Z,15.50
2023-04-13T16:01:28.596Z,15.40
2023-04-13T16:03:55.871Z,15.20
2023-04-13T16:06:22.620Z,15.00
2023-04-13T16:08:49.310Z,15.20
2023-04-13T16:11:15.837Z,15.20
2023-04-13T16:13:49.488Z,15.10
2023-04-13T16:16:17.695Z,15.20
2023-04-13T16:18:44.291Z,15.20
2023-04-13T16:21:10.986Z,15.30
2023-04-13T16:23:38.186Z,15.10
2023-04-13T16:26:05.089Z,15.10
2023-04-13T16:28:31.784Z,15.20
2023-04-13T16:30:58.997Z,14.80
2023-04-13T16:33:25.628Z,14.70
2023-04-13T16:35:52.231Z,14.70
2023-04-13T16:38:18.802Z,14.70
2023-04-13T16:40:45.604Z,14.70
2023-04-13T16:43:12.261Z,14.70
2023-04-13T16:45:38.878Z,14.40
2023-04-13T16:48:05.617Z,14.40
2023-04-13T16:50:32.615Z,14.40
2023-04-13T16:52:59.519Z,14.40
2023-04-13T16:55:28.424Z,14.40
2023-04-13T16:57:55.375Z,14.40
2023-04-13T17:00:22.270Z,14.50
2023-04-13T17:02:49.085Z,14.40
2023-04-13T17:05:16.182Z,14.30
2023-04-13T17:07:43.668Z,14.20
2023-04-13T17:10:12.385Z,14.30
2023-04-13T17:12:39.184Z,14.20
2023-04-13T17:15:06.131Z,14.10
2023-04-13T17:17:32.915Z,14.00
2023-04-13T17:19:59.573Z,13.90
2023-04-13T17:22:26.119Z,13.80
2023-04-13T17:24:52.682Z,13.80
2023-04-13T17:27:19.232Z,13.80
2023-04-13T17:29:46.224Z,13.70
2023-04-13T17:32:12.861Z,13.70
2023-04-13T17:34:39.447Z,13.70
2023-04-13T17:37:07.427Z,13.70
2023-04-13T17:39:35.075Z,13.60
2023-04-13T17:42:02.055Z,13.50
2023-04-13T17:44:28.641Z,13.50
2023-04-13T17:46:55.281Z,13.40
2023-04-13T17:49:22.188Z,13.30
2023-04-13T17:51:49.349Z,13.10
2023-04-13T17:54:16.033Z,12.90
2023-04-13T17:56:42.642Z,12.80
2023-04-13T17:59:11.674Z,12.80
2023-04-13T18:01:38.336Z,12.80
2023-04-13T18:04:05.129Z,12.70
2023-04-13T18:06:31.967Z,12.60
2023-04-13T18:08:58.809Z,12.50
2023-04-13T18:11:25.980Z,12.40
2023-04-13T18:13:52.667Z,12.40
2023-04-13T18:16:19.307Z,12.30
2023-04-13T18:18:46.360Z,12.10
2023-04-13T18:21:13.490Z,11.90
2023-04-13T18:23:40.059Z,11.70
2023-04-13T18:26:07.182Z,11.70
2023-04-13T18:28:36.937Z,11.60
2023-04-13T18:31:04.549Z,11.50
2023-04-13T18:33:31.803Z,11.40
2023-04-13T18:35:58.402Z,11.40
2023-04-13T18:38:24.923Z,11.40
2023-04-13T18:40:51.557Z,11.20
2023-04-13T18:43:18.802Z,11.20
2023-04-13T18:45:45.793Z,11.00
2023-04-13T18:48:12.533Z,10.90
2023-04-13T18:50:39.170Z,10.80
2023-04-13T18:53:06.021Z,10.80
2023-04-13T18:55:32.759Z,10.70
2023-04-13T18:57:59.408Z,10.60
2023-04-13T19:00:25.996Z,10.50
2023-04-13T19:02:52.995Z,10.30
2023-04-13T19:05:19.857Z,10.20
2023-04-13T19:07:58.347Z,10.20
2023-04-13T19:10:25.895Z,10.10
2023-04-13T19:12:52.580Z,10.00
2023-04-13T19:15:19.248Z,9.90
2023-04-13T19:17:45.957Z,9.80
2023-04-13T19:20:13.112Z,9.70
2023-04-13T19:22:39.668Z,9.70
2023-04-13T19:25:07.427Z,9.60
2023-04-13T19:27:34.060Z,9.50
2023-04-13T19:30:00.595Z,9.40
2023-04-13T19:32:27.236Z,9.30
2023-04-13T19:34:53.881Z,9.30
2023-04-13T19:37:20.461Z,9.20
2023-04-13T19:39:47.082Z,9.10
2023-04-13T19:42:13.982Z,9.00
2023-04-13T19:44:40.817Z,8.90
2023-04-13T19:47:07.383Z,8.80
2023-04-13T19:49:33.978Z,8.70
2023-04-13T19:52:01.853Z,8.70
2023-04-13T19:54:28.469Z,8.60
2023-04-13T19:56:55.026Z,8.50
2023-04-13T19:59:21.574Z,8.40
2023-04-13T20:01:48.416Z,8.30
2023-04-13T20:04:15.282Z,8.20
2023-04-13T20:06:41.948Z,8.10
2023-04-13T20:09:12.254Z,8.00
2023-04-13T20:11:39.343Z,8.00
2023-04-13T20:14:05.944Z,7.80
2023-04-13T20:16:32.558Z,7.80
2023-04-13T20:18:59.638Z,7.70
2023-04-13T20:21:30.692Z,7.70
2023-04-13T20:23:57.662Z,7.60
2023-04-13T20:26:27.443Z,7.50
2023-04-13T20:28:54.816Z,7.50
2023-04-13T20:31:21.790Z,7.40
2023-04-13T20:33:48.933Z,7.40
2023-04-13T20:36:18.225Z,7.30
2023-04-13T20:38:45.026Z,7.20
2023-04-13T20:41:13.894Z,7.10
2023-04-13T20:43:41.250Z,7.10
2023-04-13T20:46:10.769Z,7.00
2023-04-13T20:51:12.972Z,6.90
2023-04-13T20:53:39.688Z,6.80
2023-04-13T20:56:09.403Z,6.80
2023-04-13T20:58:37.383Z,6.80
2023-04-13T21:01:04.646Z,6.70
2023-04-13T21:03:32.008Z,6.70
2023-04-13T21:05:59.267Z,6.70
2023-04-13T21:08:26.503Z,6.70
2023-04-13T21:10:53.227Z,6.70
2023-04-13T21:13:19.937Z,6.70
2023-04-13T21:15:46.898Z,6.70
2023-04-13T21:18:13.448Z,6.60
2023-04-13T21:20:42.227Z,6.60
2023-04-13T21:23:08.824Z,6.60
2023-04-13T21:25:36.185Z,6.50
2023-04-13T21:28:03.082Z,6.50
2023-04-13T21:30:29.779Z,6.50
2023-04-13T21:32:56.420Z,6.60
2023-04-13T21:35:23.079Z,6.50
2023-04-13T21:37:49.666Z,6.50
2023-04-13T21:40:16.739Z,6.40
2023-04-13T21:42:43.380Z,6.40
2023-04-13T21:45:10.340Z,6.40
2023-04-13T21:47:36.972Z,6.40
2023-04-13T21:50:03.657Z,6.30
2023-04-13T21:52:30.273Z,6.30
2023-04-13T21:54:59.703Z,6.30
2023-04-13T21:57:26.554Z,6.30
2023-04-13T21:59:54.306Z,6.30
2023-04-13T22:02:21.175Z,6.40
2023-04-13T22:04:47.920Z,6.30
2023-04-13T22:07:14.547Z,6.40
2023-04-13T22:09:41.193Z,6.40
2023-04-13T22:12:10.206Z,6.60
2023-04-13T22:14:36.845Z,6.80
2023-04-13T22:17:03.798Z,7.00
2023-04-13T22:19:30.352Z,7.20
2023-04-13T22:21:56.921Z,7.60
2023-04-13T22:24:23.448Z,7.80
2023-04-13T22:26:50.005Z,7.90
2023-04-13T22:29:16.708Z,8.10
2023-04-13T22:31:43.386Z,8.20
2023-04-13T22:34:09.959Z,8.40
2023-04-13T22:36:36.550Z,8.50
2023-04-13T22:39:03.150Z,8.50
2023-04-13T22:41:29.749Z,8.50
2023-04-13T22:43:56.377Z,8.60
2023-04-13T22:46:23.907Z,8.60
2023-04-13T22:48:50.524Z,8.80
2023-04-13T22:51:17.166Z,8.80
2023-04-13T22:53:43.720Z,8.70
2023-04-13T22:56:10.450Z,8.50
2023-04-13T22:58:37.117Z,8.40
2023-04-13T23:01:04.591Z,8.30
2023-04-13T23:03:31.390Z,8.40
2023-04-13T23:05:58.022Z,8.40
2023-04-13T23:08:24.601Z,8.40
2023-04-13T23:10:51.131Z,8.30
2023-04-13T23:13:17.668Z,8.20
2023-04-13T23:15:44.192Z,8.10
2023-04-13T23:18:10.896Z,8.00
2023-04-13T23:20:37.481Z,7.90
2023-04-13T23:23:04.060Z,7.80
2023-04-13T23:25:30.796Z,7.70
2023-04-13T23:27:57.335Z,7.60
2023-04-13T23:30:23.899Z,7.50
2023-04-13T23:32:50.546Z,7.40
2023-04-13T23:35:17.221Z,7.30
2023-04-13T23:37:45.197Z,7.30
2023-04-13T23:40:11.893Z,7.20
2023-04-13T23:42:38.539Z,7.10
2023-04-13T23:45:05.414Z,7.00
2023-04-13T23:47:32.044Z,7.00
2023-04-13T23:49:58.639Z,6.90
2023-04-13T23:52:25.174Z,6.80
2023-04-13T23:54:51.682Z,6.70
2023-04-13T23:57:18.259Z,6.70
2023-04-13T23:59:44.834Z,6.60
